KCIC/CIC METAR and TAF weather

Enter ICAO airport designator
Station Type Date Time Source
KCIC METAR 2019/02/23 01:47 UTC NOAA

KCIC 230147Z 15006KT 80SM SKC 11/M07 A3011


Station Type Date Time Source
KCIC Decoded METAR 2019/02/23 01:47 UTC NOAA

Chico Municipal , CA, United States (KCIC) 39-48N 121-51W
Feb 22, 2019 - 08:47 PM EST / 2019.02.23 0147 UTC
Wind: from the SSE (150 degrees) at 7 MPH (6 KT):0
Visibility: 80 mile(s):0
Sky conditions: clear
Temperature: 51 F (11 C)
Dew Point: 19 F (-7 C)
Relative Humidity: 27%
Pressure (altimeter): 30.11 in. Hg (1019 hPa)
ob: KCIC 230147Z 15006KT 80SM SKC 11/M07 A3011
cycle: 2

Station Type Date Time Source
KCIC TAF UTC NOAA

Error!


Example: see airport list